Time;durP1;ratioP1;P1;durP2;ratioP2;P2;SDS_P1;SDS_P2;PMS_P1;PMS_P2;Temp;Humidity;BMP_temperature;BMP_pressure;BME280_temperature;BME280_humidity;BME280_pressure;Samples;Min_cycle;Max_cycle;Signal;HPM_P1;HPM_P2
2023/04/02 00:02:20;;;;;;;17.57;8.30;;;;;;;;;;5049586;28;20045;-63
2023/04/02 00:05:06;;;;;;;15.20;8.13;;;;;;;;;;5049144;28;20084;-63
2023/04/02 00:07:32;;;;;;;14.43;7.50;;;;;;;;;;5048876;28;20127;-63
2023/04/02 00:09:59;;;;;;;20.33;8.40;;;;;;;;;;5048975;28;20048;-63
2023/04/02 00:12:25;;;;;;;16.37;8.07;;;;;;;;;;5049643;28;20209;-63
2023/04/02 00:14:52;;;;;;;16.50;8.07;;;;;;;;;;5048804;28;20045;-63
2023/04/02 00:17:19;;;;;;;17.77;9.20;;;;;;;;;;5049481;28;20053;-62
2023/04/02 00:20:05;;;;;;;11.67;8.03;;;;;;;;;;5049375;28;20041;-62
2023/04/02 00:22:32;;;;;;;16.10;8.30;;;;;;;;;;5049755;28;20057;-63
2023/04/02 00:25:00;;;;;;;11.50;8.27;;;;;;;;;;5049801;28;20045;-63
2023/04/02 00:27:26;;;;;;;14.97;7.73;;;;;;;;;;5048713;28;20053;-63
2023/04/02 00:29:54;;;;;;;13.27;7.43;;;;;;;;;;5049070;28;20053;-63
2023/04/02 00:32:24;;;;;;;13.03;8.47;;;;;;;;;;5048663;28;20041;-63
2023/04/02 00:34:50;;;;;;;14.43;7.83;;;;;;;;;;5048841;28;20037;-63
2023/04/02 00:37:22;;;;;;;18.57;7.60;;;;;;;;;;5048471;28;20127;-63
2023/04/02 00:39:50;;;;;;;12.40;7.67;;;;;;;;;;5049453;28;20041;-63
2023/04/02 00:42:17;;;;;;;35.43;9.97;;;;;;;;;;5049282;28;20056;-63
2023/04/02 00:44:44;;;;;;;14.67;8.13;;;;;;;;;;5048803;28;20442;-63
2023/04/02 00:47:17;;;;;;;14.47;8.37;;;;;;;;;;5048207;28;20480;-63
2023/04/02 00:49:43;;;;;;;12.82;7.18;;;;;;;;;;5048778;28;20128;-63
2023/04/02 00:52:12;;;;;;;13.77;6.93;;;;;;;;;;5049226;28;20095;-63
2023/04/02 00:55:04;;;;;;;11.43;7.47;;;;;;;;;;5049267;28;20084;-63
2023/04/02 00:57:32;;;;;;;14.20;7.67;;;;;;;;;;5045731;28;20053;-63
2023/04/02 01:00:07;;;;;;;17.10;7.83;;;;;;;;;;5048717;28;20503;-63
2023/04/02 01:02:37;;;;;;;11.93;7.27;;;;;;;;;;5049144;28;20099;-63
2023/04/02 01:05:15;;;;;;;18.80;7.37;;;;;;;;;;5048921;28;20582;-63
2023/04/02 01:08:13;;;;;;;13.87;7.20;;;;;;;;;;5048716;28;20506;-63
2023/04/02 01:10:45;;;;;;;19.73;7.47;;;;;;;;;;5036708;28;20106;-63
2023/04/02 01:13:16;;;;;;;10.07;7.07;;;;;;;;;;5048648;28;20639;-63
2023/04/02 01:15:49;;;;;;;12.70;7.90;;;;;;;;;;5048899;28;20772;-63
2023/04/02 01:18:25;;;;;;;15.02;8.68;;;;;;;;;;5048738;28;20087;-63
2023/04/02 01:21:10;;;;;;;11.87;7.90;;;;;;;;;;5049071;28;20072;-63
2023/04/02 01:23:48;;;;;;;10.53;7.00;;;;;;;;;;5048181;28;20077;-63
2023/04/02 01:26:14;;;;;;;14.00;8.07;;;;;;;;;;5048154;28;20040;-63
2023/04/02 01:28:59;;;;;;;12.97;7.53;;;;;;;;;;5048840;28;20563;-63
2023/04/02 01:31:26;;;;;;;10.70;7.07;;;;;;;;;;5048675;28;20084;-63
2023/04/02 01:33:53;;;;;;;12.83;6.93;;;;;;;;;;5048178;28;20076;-63
2023/04/02 01:36:40;;;;;;;11.40;6.40;;;;;;;;;;5048800;28;20131;-63
2023/04/02 01:39:25;;;;;;;10.73;6.17;;;;;;;;;;5048446;28;20045;-63
2023/04/02 01:42:04;;;;;;;10.43;5.77;;;;;;;;;;5048305;28;20060;-63
2023/04/02 01:44:42;;;;;;;12.73;6.20;;;;;;;;;;5048793;28;20447;-62
2023/04/02 01:47:12;;;;;;;12.83;6.43;;;;;;;;;;5048383;28;20049;-63
2023/04/02 01:49:39;;;;;;;11.23;5.70;;;;;;;;;;5047109;28;20060;-63
2023/04/02 01:52:06;;;;;;;10.10;5.87;;;;;;;;;;5047581;28;20047;-63
2023/04/02 01:54:33;;;;;;;13.90;6.90;;;;;;;;;;5047700;28;20040;-63
2023/04/02 01:56:59;;;;;;;17.97;6.50;;;;;;;;;;5047010;28;20086;-63
2023/04/02 01:59:25;;;;;;;11.33;6.00;;;;;;;;;;5048278;28;20052;-63
2023/04/02 02:02:23;;;;;;;14.17;5.83;;;;;;;;;;5048104;28;20037;-64
2023/04/02 02:04:53;;;;;;;17.43;6.63;;;;;;;;;;5041411;28;20095;-63
2023/04/02 02:07:20;;;;;;;11.03;6.50;;;;;;;;;;5048250;28;20061;-63
2023/04/02 02:09:47;;;;;;;10.97;6.70;;;;;;;;;;5047899;28;20045;-63
2023/04/02 02:12:14;;;;;;;9.80;5.83;;;;;;;;;;5047154;28;20071;-63
2023/04/02 02:14:45;;;;;;;11.47;5.87;;;;;;;;;;5047788;28;20033;-62
2023/04/02 02:17:14;;;;;;;10.87;6.03;;;;;;;;;;5047519;28;20056;-63
2023/04/02 02:19:46;;;;;;;10.20;5.83;;;;;;;;;;5050158;28;20037;-63
2023/04/02 02:22:24;;;;;;;16.77;6.43;;;;;;;;;;5051917;28;20099;-63
2023/04/02 02:24:50;;;;;;;13.70;5.10;;;;;;;;;;5051410;28;20045;-63
2023/04/02 02:27:16;;;;;;;11.20;6.00;;;;;;;;;;5051386;28;20135;-63
2023/04/02 02:29:44;;;;;;;15.57;6.00;;;;;;;;;;5051412;28;20132;-63
2023/04/02 02:32:12;;;;;;;14.00;7.67;;;;;;;;;;5051738;28;20095;-63
2023/04/02 02:34:45;;;;;;;11.93;4.77;;;;;;;;;;5051578;28;20052;-63
2023/04/02 02:37:14;;;;;;;9.88;5.35;;;;;;;;;;5051641;28;20053;-63
2023/04/02 02:39:42;;;;;;;11.43;4.90;;;;;;;;;;5050828;28;20056;-63
2023/04/02 02:42:27;;;;;;;16.07;6.27;;;;;;;;;;5051267;28;20291;-63
2023/04/02 02:44:55;;;;;;;14.63;5.80;;;;;;;;;;5051093;28;20068;-63
2023/04/02 02:47:32;;;;;;;12.00;5.67;;;;;;;;;;5051072;28;20302;-62
2023/04/02 02:50:02;;;;;;;11.20;5.23;;;;;;;;;;5051117;28;20422;-63
2023/04/02 02:52:31;;;;;;;17.03;4.53;;;;;;;;;;5051568;28;20429;-63
2023/04/02 02:54:59;;;;;;;18.67;5.03;;;;;;;;;;5051143;28;20374;-63
2023/04/02 02:57:27;;;;;;;12.27;4.87;;;;;;;;;;5051450;28;20833;-63
2023/04/02 02:59:54;;;;;;;9.77;4.87;;;;;;;;;;5050828;28;20371;-63
2023/04/02 03:02:21;;;;;;;13.00;5.77;;;;;;;;;;5051251;28;20330;-63
2023/04/02 03:04:48;;;;;;;12.20;5.63;;;;;;;;;;5051083;28;20291;-63
2023/04/02 03:07:15;;;;;;;14.57;5.43;;;;;;;;;;5050659;28;20298;-63
2023/04/02 03:10:00;;;;;;;11.43;5.10;;;;;;;;;;5051116;28;20292;-63
2023/04/02 03:12:45;;;;;;;13.83;5.23;;;;;;;;;;5051080;28;20299;-63
2023/04/02 03:15:26;;;;;;;11.30;5.37;;;;;;;;;;5050464;28;20715;-63
2023/04/02 03:18:05;;;;;;;9.03;5.77;;;;;;;;;;5050714;28;20373;-63
2023/04/02 03:20:45;;;;;;;12.17;5.00;;;;;;;;;;5051353;28;20283;-63
2023/04/02 03:23:27;;;;;;;17.27;5.93;;;;;;;;;;5050894;28;20287;-63
2023/04/02 03:25:52;;;;;;;14.77;5.40;;;;;;;;;;5051086;28;20288;-63
2023/04/02 03:28:21;;;;;;;13.70;5.50;;;;;;;;;;5049755;28;20300;-63
2023/04/02 03:30:49;;;;;;;14.60;5.97;;;;;;;;;;5050178;28;20570;-63
2023/04/02 03:33:20;;;;;;;11.17;5.30;;;;;;;;;;5049627;28;20317;-63
2023/04/02 03:36:02;;;;;;;12.67;5.43;;;;;;;;;;5050030;28;20808;-62
2023/04/02 03:38:31;;;;;;;15.47;6.40;;;;;;;;;;5050496;28;20304;-63
2023/04/02 03:41:06;;;;;;;17.37;6.20;;;;;;;;;;5050209;28;20330;-63
2023/04/02 03:43:36;;;;;;;12.53;5.67;;;;;;;;;;5050399;28;20348;-63
2023/04/02 03:46:25;;;;;;;15.67;6.00;;;;;;;;;;5050374;28;20287;-63
2023/04/02 03:48:54;;;;;;;16.00;6.07;;;;;;;;;;5044739;28;20669;-63
2023/04/02 03:51:24;;;;;;;21.10;5.57;;;;;;;;;;5049804;28;20318;-63
2023/04/02 03:53:50;;;;;;;15.23;6.27;;;;;;;;;;5049742;28;20365;-63
2023/04/02 03:56:22;;;;;;;16.47;6.77;;;;;;;;;;5049590;28;20279;-63
2023/04/02 03:58:53;;;;;;;11.87;5.63;;;;;;;;;;5049432;28;20284;-63
2023/04/02 04:01:28;;;;;;;16.40;7.57;;;;;;;;;;5050265;28;20567;-63
2023/04/02 04:03:55;;;;;;;13.47;5.53;;;;;;;;;;5050091;28;20298;-63
2023/04/02 04:06:26;;;;;;;12.83;6.17;;;;;;;;;;5049886;28;20317;-63
2023/04/02 04:08:58;;;;;;;11.33;5.83;;;;;;;;;;5049193;28;20310;-63
2023/04/02 04:11:32;;;;;;;11.63;5.93;;;;;;;;;;5049854;28;20318;-63
2023/04/02 04:13:59;;;;;;;11.23;5.83;;;;;;;;;;5049998;28;20290;-63
2023/04/02 04:16:33;;;;;;;18.70;6.20;;;;;;;;;;5049687;28;20298;-63
2023/04/02 04:19:18;;;;;;;12.33;5.10;;;;;;;;;;5046315;28;20288;-63
2023/04/02 04:21:45;;;;;;;10.80;5.90;;;;;;;;;;5040160;28;20319;-62
2023/04/02 04:24:22;;;;;;;9.77;5.67;;;;;;;;;;5039882;28;21207;-63
2023/04/02 04:26:53;;;;;;;10.80;5.13;;;;;;;;;;5040572;28;20366;-63
2023/04/02 04:29:39;;;;;;;14.63;5.07;;;;;;;;;;5039534;28;20303;-63
2023/04/02 04:32:16;;;;;;;12.30;5.10;;;;;;;;;;5039883;28;20616;-63
2023/04/02 04:34:50;;;;;;;11.47;4.67;;;;;;;;;;5038471;28;20299;-63
2023/04/02 04:37:20;;;;;;;;;;;;;;;;;;5040383;28;20311;-63
2023/04/02 04:39:52;;;;;;;11.40;5.70;;;;;;;;;;5039797;28;19921;-63
2023/04/02 04:42:30;;;;;;;12.57;5.17;;;;;;;;;;5039801;28;20283;-63
2023/04/02 04:45:14;;;;;;;7.70;4.17;;;;;;;;;;5048971;28;20302;-64
2023/04/02 04:47:53;;;;;;;6.57;4.03;;;;;;;;;;5049264;28;20812;-63
2023/04/02 04:50:38;;;;;;;11.33;4.73;;;;;;;;;;5048806;28;21000;-63
2023/04/02 04:53:08;;;;;;;9.27;4.30;;;;;;;;;;5048288;28;20295;-63
2023/04/02 04:55:43;;;;;;;7.80;3.50;;;;;;;;;;5047939;28;20288;-63
2023/04/02 04:58:09;;;;;;;12.03;4.13;;;;;;;;;;5048899;28;20699;-63
2023/04/02 05:00:42;;;;;;;12.23;3.33;;;;;;;;;;5048296;28;20699;-62
2023/04/02 05:03:17;;;;;;;16.77;5.47;;;;;;;;;;5048877;28;20284;-62
2023/04/02 05:05:44;;;;;;;8.10;3.77;;;;;;;;;;5048750;28;20044;-62
2023/04/02 05:08:12;;;;;;;10.87;4.13;;;;;;;;;;5048696;28;20303;-63
2023/04/02 05:10:43;;;;;;;8.77;2.90;;;;;;;;;;5048402;28;20368;-62
2023/04/02 05:13:15;;;;;;;11.77;2.90;;;;;;;;;;5044078;28;20288;-63
2023/04/02 05:15:45;;;;;;;9.87;3.17;;;;;;;;;;5028536;28;20288;-63
2023/04/02 05:18:30;;;;;;;9.47;3.17;;;;;;;;;;5027299;28;20284;-63
2023/04/02 05:21:02;;;;;;;9.17;2.80;;;;;;;;;;5028084;28;20848;-62
2023/04/02 05:23:30;;;;;;;5.22;2.92;;;;;;;;;;5028352;28;20296;-63
2023/04/02 05:26:11;;;;;;;10.20;2.70;;;;;;;;;;5028420;28;20131;-63
2023/04/02 05:28:45;;;;;;;4.70;1.97;;;;;;;;;;5028150;28;20292;-63
2023/04/02 05:31:18;;;;;;;10.07;2.90;;;;;;;;;;5028074;28;20371;-63
2023/04/02 05:33:48;;;;;;;10.00;2.55;;;;;;;;;;5028417;28;20280;-63
2023/04/02 05:36:22;;;;;;;3.80;2.30;;;;;;;;;;5028472;28;20132;-62
2023/04/02 05:38:50;;;;;;;5.37;2.40;;;;;;;;;;5027766;28;20288;-63
2023/04/02 05:41:29;;;;;;;10.40;2.50;;;;;;;;;;5028125;28;20422;-63
2023/04/02 05:44:01;;;;;;;7.17;3.17;;;;;;;;;;5028135;28;20293;-63
2023/04/02 05:46:31;;;;;;;7.70;2.83;;;;;;;;;;5028263;28;20288;-63
2023/04/02 05:48:58;;;;;;;6.63;3.37;;;;;;;;;;5028014;28;20304;-63
2023/04/02 05:51:30;;;;;;;9.93;2.77;;;;;;;;;;5028343;28;20311;-63
2023/04/02 05:53:59;;;;;;;6.43;3.47;;;;;;;;;;5028681;28;20395;-63
2023/04/02 05:56:27;;;;;;;9.77;2.70;;;;;;;;;;5031221;28;20288;-63
2023/04/02 05:58:59;;;;;;;10.47;4.23;;;;;;;;;;5032008;28;20276;-63
2023/04/02 06:01:35;;;;;;;5.93;3.10;;;;;;;;;;5032193;28;20292;-63
2023/04/02 06:04:16;;;;;;;9.90;3.73;;;;;;;;;;5031976;28;20288;-63
2023/04/02 06:06:44;;;;;;;7.73;2.80;;;;;;;;;;5038561;28;20287;-60
2023/04/02 06:09:16;;;;;;;8.93;2.73;;;;;;;;;;5050677;28;20349;-60
2023/04/02 06:11:47;;;;;;;6.67;3.03;;;;;;;;;;5051968;28;20326;-63
2023/04/02 06:14:14;;;;;;;8.50;2.77;;;;;;;;;;5051814;28;20653;-63
2023/04/02 06:16:42;;;;;;;6.80;2.70;;;;;;;;;;5051819;28;20298;-63
2023/04/02 06:19:15;;;;;;;10.03;3.67;;;;;;;;;;5051248;28;20653;-63
2023/04/02 06:21:45;;;;;;;8.93;2.97;;;;;;;;;;5051357;28;20291;-63
2023/04/02 06:24:14;;;;;;;10.40;2.10;;;;;;;;;;5051642;28;20383;-64
2023/04/02 06:27:05;;;;;;;7.87;2.30;;;;;;;;;;5051810;28;20287;-61
2023/04/02 06:29:37;;;;;;;6.80;2.00;;;;;;;;;;5051491;28;20872;-61
2023/04/02 06:32:06;;;;;;;9.00;2.67;;;;;;;;;;5051117;28;20363;-63
2023/04/02 06:34:32;;;;;;;7.53;2.43;;;;;;;;;;5051269;28;20363;-63
2023/04/02 06:37:03;;;;;;;7.10;2.07;;;;;;;;;;5051602;28;20720;-62
2023/04/02 06:39:29;;;;;;;5.93;1.80;;;;;;;;;;5051703;28;20374;-63
2023/04/02 06:41:59;;;;;;;5.97;1.90;;;;;;;;;;5043284;28;20292;-63
2023/04/02 06:44:27;;;;;;;9.50;2.00;;;;;;;;;;5041583;28;20288;-63
2023/04/02 06:46:56;;;;;;;12.27;3.07;;;;;;;;;;5041556;28;20412;-62
2023/04/02 06:49:39;;;;;;;7.77;2.93;;;;;;;;;;5043276;28;20103;-61
2023/04/02 06:52:05;;;;;;;;;;;;;;;;;;5038989;28;20049;-61
2023/04/02 06:54:31;;;;;;;5.37;1.97;;;;;;;;;;5038294;28;19932;-62
2023/04/02 06:56:57;;;;;;;6.83;2.13;;;;;;;;;;5040867;28;20033;-62
2023/04/02 06:59:24;;;;;;;7.80;1.90;;;;;;;;;;5058066;28;20037;-63
2023/04/02 07:01:58;;;;;;;6.50;1.90;;;;;;;;;;5041741;28;20045;-63
2023/04/02 07:04:24;;;;;;;5.67;1.93;;;;;;;;;;5042023;28;20099;-63
2023/04/02 07:06:50;;;;;;;8.07;1.80;;;;;;;;;;5039245;28;20050;-63
2023/04/02 07:09:16;;;;;;;7.20;2.53;;;;;;;;;;5040829;28;20041;-62
2023/04/02 07:11:42;;;;;;;6.27;2.07;;;;;;;;;;5038092;28;20055;-64
2023/04/02 07:14:12;;;;;;;9.40;2.90;;;;;;;;;;5033614;28;20096;-63
2023/04/02 07:16:38;;;;;;;6.60;2.40;;;;;;;;;;5029839;28;20135;-62
2023/04/02 07:19:04;;;;;;;8.87;1.87;;;;;;;;;;5030743;28;20755;-61
2023/04/02 07:21:30;;;;;;;7.60;2.00;;;;;;;;;;5037098;28;20171;-63
2023/04/02 07:23:57;;;;;;;6.30;2.23;;;;;;;;;;5035487;28;20072;-63
2023/04/02 07:26:26;;;;;;;4.97;2.10;;;;;;;;;;5040165;28;20068;-63
2023/04/02 07:28:52;;;;;;;7.70;2.23;;;;;;;;;;5037826;28;20057;-63
2023/04/02 07:31:20;;;;;;;8.33;2.30;;;;;;;;;;5039824;28;20045;-62
2023/04/02 07:33:46;;;;;;;8.00;1.50;;;;;;;;;;5037998;28;20390;-61
2023/04/02 07:36:13;;;;;;;5.87;1.80;;;;;;;;;;5039149;28;20045;-61
2023/04/02 07:38:39;;;;;;;10.33;1.50;;;;;;;;;;5040059;28;20053;-61
2023/04/02 07:41:06;;;;;;;6.70;1.50;;;;;;;;;;5037095;28;20396;-61
2023/04/02 07:43:32;;;;;;;6.70;2.07;;;;;;;;;;5039789;28;20459;-61
2023/04/02 07:45:58;;;;;;;10.80;2.20;;;;;;;;;;5040037;28;20042;-61
2023/04/02 07:48:25;;;;;;;9.57;2.07;;;;;;;;;;5039568;28;20053;-61
2023/04/02 07:50:51;;;;;;;6.47;1.80;;;;;;;;;;5038667;28;20041;-62
2023/04/02 07:53:26;;;;;;;5.77;1.77;;;;;;;;;;5039250;28;20462;-62
2023/04/02 07:55:52;;;;;;;6.97;1.70;;;;;;;;;;5043364;28;20046;-62
2023/04/02 07:58:18;;;;;;;7.93;1.70;;;;;;;;;;5038616;28;20072;-62
2023/04/02 08:00:45;;;;;;;9.07;2.13;;;;;;;;;;5037855;28;20038;-62
2023/04/02 08:03:12;;;;;;;4.60;1.50;;;;;;;;;;5039971;28;20127;-62
2023/04/02 08:05:38;;;;;;;6.00;1.80;;;;;;;;;;5048769;28;20938;-62
2023/04/02 08:08:04;;;;;;;10.43;2.47;;;;;;;;;;5050054;28;20132;-62
2023/04/02 08:10:31;;;;;;;6.07;1.70;;;;;;;;;;5049579;28;20098;-62
2023/04/02 08:12:57;;;;;;;8.20;1.90;;;;;;;;;;5049381;28;20037;-62
2023/04/02 08:15:23;;;;;;;5.60;1.23;;;;;;;;;;5049747;28;20106;-62
2023/04/02 08:17:49;;;;;;;9.07;1.70;;;;;;;;;;5048820;28;20064;-62
2023/04/02 08:20:16;;;;;;;4.33;1.30;;;;;;;;;;5049500;28;20045;-62
2023/04/02 08:22:43;;;;;;;13.20;3.47;;;;;;;;;;5049221;28;20052;-62
2023/04/02 08:25:09;;;;;;;4.70;1.70;;;;;;;;;;5048729;28;20077;-62
2023/04/02 08:27:35;;;;;;;9.83;2.00;;;;;;;;;;5045261;28;20056;-62
2023/04/02 08:30:01;;;;;;;7.47;1.40;;;;;;;;;;5028853;28;20084;-62
2023/04/02 08:32:27;;;;;;;6.70;1.30;;;;;;;;;;5029242;28;20104;-62
2023/04/02 08:34:53;;;;;;;8.23;1.83;;;;;;;;;;5029712;28;20049;-62
2023/04/02 08:37:20;;;;;;;4.77;1.60;;;;;;;;;;5029286;28;20037;-62
2023/04/02 08:39:46;;;;;;;4.97;1.80;;;;;;;;;;5028138;28;20116;-62
2023/04/02 08:42:18;;;;;;;4.20;1.20;;;;;;;;;;5027424;28;20059;-62
2023/04/02 08:45:05;;;;;;;5.57;1.50;;;;;;;;;;5048954;28;20051;-64
2023/04/02 08:47:35;;;;;;;7.17;1.63;;;;;;;;;;5037366;28;20571;-63
2023/04/02 08:50:03;;;;;;;5.70;1.90;;;;;;;;;;5038351;28;20037;-63
2023/04/02 08:52:35;;;;;;;6.53;2.20;;;;;;;;;;5039915;28;21100;-62
2023/04/02 08:55:02;;;;;;;6.40;1.60;;;;;;;;;;5038973;28;20063;-62
2023/04/02 08:57:35;;;;;;;4.77;1.80;;;;;;;;;;5039285;28;20049;-62
2023/04/02 09:00:20;;;;;;;4.53;1.30;;;;;;;;;;5041238;28;20118;-62
2023/04/02 09:02:52;;;;;;;6.23;1.70;;;;;;;;;;5041977;28;20057;-62
2023/04/02 09:05:22;;;;;;;4.33;1.40;;;;;;;;;;5039859;28;20072;-63
2023/04/02 09:07:51;;;;;;;4.70;1.30;;;;;;;;;;5039768;28;20049;-63
2023/04/02 09:10:18;;;;;;;6.40;1.37;;;;;;;;;;5038480;28;20103;-63
2023/04/02 09:12:47;;;;;;;4.47;1.37;;;;;;;;;;5038219;28;20040;-62
2023/04/02 09:15:13;;;;;;;3.83;1.20;;;;;;;;;;5038972;28;20091;-62
2023/04/02 09:17:40;;;;;;;8.53;1.50;;;;;;;;;;5037291;28;20056;-62
2023/04/02 09:20:23;;;;;;;7.67;2.27;;;;;;;;;;5036144;28;20041;-62
2023/04/02 09:22:50;;;;;;;8.27;2.45;;;;;;;;;;5036693;28;20046;-63
2023/04/02 09:25:19;;;;;;;6.43;1.43;;;;;;;;;;5036604;28;20048;-62
2023/04/02 09:27:50;;;;;;;6.80;2.63;;;;;;;;;;5038203;28;20060;-63
2023/04/02 09:30:28;;;;;;;4.90;1.07;;;;;;;;;;5034712;28;20052;-63
2023/04/02 09:32:56;;;;;;;4.03;1.23;;;;;;;;;;5039388;28;20099;-62
2023/04/02 09:35:27;;;;;;;4.00;1.40;;;;;;;;;;5043887;28;20053;-63
2023/04/02 09:38:12;;;;;;;3.80;1.10;;;;;;;;;;5042739;28;20418;-63
2023/04/02 09:40:53;;;;;;;2.83;1.10;;;;;;;;;;5040832;28;20060;-62
2023/04/02 09:43:20;;;;;;;4.13;1.10;;;;;;;;;;5037350;28;20049;-63
2023/04/02 09:46:00;;;;;;;2.57;0.90;;;;;;;;;;5039803;28;20044;-62
2023/04/02 09:48:29;;;;;;;5.33;1.27;;;;;;;;;;5039496;28;20415;-63
2023/04/02 09:51:10;;;;;;;4.10;1.13;;;;;;;;;;5038679;28;20045;-63
2023/04/02 09:53:38;;;;;;;2.87;1.00;;;;;;;;;;5037485;28;20427;-62
2023/04/02 09:56:17;;;;;;;5.87;1.30;;;;;;;;;;5036677;28;20056;-63
2023/04/02 09:58:45;;;;;;;5.60;1.03;;;;;;;;;;5038176;28;20053;-62
2023/04/02 10:01:32;;;;;;;4.27;1.20;;;;;;;;;;5040762;28;20191;-65
2023/04/02 10:03:58;;;;;;;4.53;1.20;;;;;;;;;;5046311;28;20041;-61
2023/04/02 10:06:25;;;;;;;3.40;1.10;;;;;;;;;;5048412;28;20041;-61
2023/04/02 10:08:51;;;;;;;4.50;1.10;;;;;;;;;;5048052;28;20048;-61
2023/04/02 10:11:26;;;;;;;7.70;1.67;;;;;;;;;;5047311;28;20041;-62
2023/04/02 10:13:54;;;;;;;3.30;1.17;;;;;;;;;;5047216;28;20415;-62
2023/04/02 10:16:20;;;;;;;3.33;1.20;;;;;;;;;;5048019;28;20086;-63
2023/04/02 10:18:49;;;;;;;3.13;1.03;;;;;;;;;;5048181;28;20048;-62
2023/04/02 10:21:21;;;;;;;6.40;1.83;;;;;;;;;;5048024;28;20053;-61
2023/04/02 10:23:47;;;;;;;4.60;1.27;;;;;;;;;;5027892;28;20128;-61
2023/04/02 10:26:33;;;;;;;4.83;1.43;;;;;;;;;;5027324;28;20488;-61
2023/04/02 10:29:07;;;;;;;3.70;1.47;;;;;;;;;;5027920;28;20057;-62
2023/04/02 10:31:36;;;;;;;3.93;1.13;;;;;;;;;;5028107;28;20056;-61
2023/04/02 10:34:07;;;;;;;4.00;1.10;;;;;;;;;;5027697;28;20471;-61
2023/04/02 10:36:52;;;;;;;4.23;1.40;;;;;;;;;;5027970;28;20088;-61
2023/04/02 10:39:34;;;;;;;5.57;1.30;;;;;;;;;;5027789;28;20052;-61
2023/04/02 10:42:06;;;;;;;5.17;1.10;;;;;;;;;;5031654;28;20045;-61
2023/04/02 10:44:38;;;;;;;3.67;1.30;;;;;;;;;;5031724;28;20041;-60
2023/04/02 10:47:22;;;;;;;4.47;1.20;;;;;;;;;;5031308;28;20408;-60
2023/04/02 10:50:00;;;;;;;4.27;1.00;;;;;;;;;;5031456;28;20054;-61
2023/04/02 10:52:28;;;;;;;3.40;1.00;;;;;;;;;;5031130;28;20044;-60
2023/04/02 10:54:59;;;;;;;5.00;1.63;;;;;;;;;;5031240;28;20076;-61
2023/04/02 10:57:25;;;;;;;4.73;1.33;;;;;;;;;;5043470;28;20063;-60
2023/04/02 11:00:10;;;;;;;5.60;1.83;;;;;;;;;;5051111;28;20041;-60
2023/04/02 11:02:55;;;;;;;3.03;1.00;;;;;;;;;;5051173;28;20522;-60
2023/04/02 11:05:42;;;;;;;4.67;0.90;;;;;;;;;;5050002;28;20037;-60
2023/04/02 11:08:12;;;;;;;3.33;1.07;;;;;;;;;;5049153;28;20045;-60
2023/04/02 11:10:39;;;;;;;6.30;1.50;;;;;;;;;;5049094;28;20041;-60
2023/04/02 11:13:14;;;;;;;4.07;1.43;;;;;;;;;;5049064;28;20045;-61
2023/04/02 11:15:41;;;;;;;3.83;1.27;;;;;;;;;;5048099;28;20053;-60
2023/04/02 11:18:19;;;;;;;4.50;1.17;;;;;;;;;;5047673;28;20045;-60
2023/04/02 11:20:48;;;;;;;3.13;0.90;;;;;;;;;;5048309;28;20048;-60
2023/04/02 11:23:18;;;;;;;3.80;0.90;;;;;;;;;;5049148;28;20033;-60
2023/04/02 11:25:45;;;;;;;4.20;1.10;;;;;;;;;;5048834;28;20159;-60
2023/04/02 11:28:14;;;;;;;3.60;1.00;;;;;;;;;;5048963;28;20053;-60
2023/04/02 11:30:41;;;;;;;4.97;1.23;;;;;;;;;;5049297;28;20048;-60
2023/04/02 11:33:33;;;;;;;4.97;1.73;;;;;;;;;;5050468;28;20064;-60
2023/04/02 11:36:00;;;;;;;6.97;1.00;;;;;;;;;;5050013;28;20098;-60
2023/04/02 11:38:27;;;;;;;2.37;0.80;;;;;;;;;;5050121;28;20049;-59
2023/04/02 11:40:57;;;;;;;3.03;0.90;;;;;;;;;;5050443;28;20041;-59
2023/04/02 11:43:32;;;;;;;3.20;1.10;;;;;;;;;;5050389;28;20052;-60
2023/04/02 11:45:59;;;;;;;4.23;1.07;;;;;;;;;;5050094;28;20088;-60
2023/04/02 11:48:29;;;;;;;2.90;1.23;;;;;;;;;;5050181;28;20131;-60
2023/04/02 11:50:55;;;;;;;3.60;1.03;;;;;;;;;;5049873;28;20051;-60
2023/04/02 11:53:23;;;;;;;4.93;1.27;;;;;;;;;;5049635;28;20120;-60
2023/04/02 11:56:08;;;;;;;2.00;1.03;;;;;;;;;;5050212;28;20379;-60
2023/04/02 11:58:46;;;;;;;4.83;1.40;;;;;;;;;;5050226;28;20041;-60
2023/04/02 12:01:24;;;;;;;4.80;1.00;;;;;;;;;;5049615;28;20640;-61
2023/04/02 12:04:00;;;;;;;3.33;1.03;;;;;;;;;;5049108;28;20098;-60
2023/04/02 12:06:47;;;;;;;2.73;0.90;;;;;;;;;;5049856;28;20044;-60
2023/04/02 12:09:36;;;;;;;3.37;0.90;;;;;;;;;;5049397;28;20420;-60
2023/04/02 12:12:15;;;;;;;3.97;1.00;;;;;;;;;;5049466;28;20053;-59
2023/04/02 12:14:42;;;;;;;4.87;1.40;;;;;;;;;;5049345;28;20079;-59
2023/04/02 12:17:26;;;;;;;2.80;0.80;;;;;;;;;;5049486;28;20053;-60
2023/04/02 12:19:54;;;;;;;5.67;1.67;;;;;;;;;;5029538;28;20057;-59
2023/04/02 12:22:22;;;;;;;3.63;0.93;;;;;;;;;;5029556;28;20415;-59
2023/04/02 12:24:49;;;;;;;3.03;1.10;;;;;;;;;;5029776;28;20049;-59
2023/04/02 12:27:26;;;;;;;3.57;1.30;;;;;;;;;;5029213;28;20057;-59
2023/04/02 12:29:52;;;;;;;3.77;1.10;;;;;;;;;;5041069;28;20305;-60
2023/04/02 12:32:21;;;;;;;3.93;1.10;;;;;;;;;;5049410;28;20056;-60
2023/04/02 12:34:47;;;;;;;3.40;1.10;;;;;;;;;;5049350;28;20130;-59
2023/04/02 12:37:20;;;;;;;3.60;1.30;;;;;;;;;;5049531;28;20073;-59
2023/04/02 12:40:00;;;;;;;3.30;1.40;;;;;;;;;;5048902;28;20136;-59
2023/04/02 12:42:31;;;;;;;4.13;1.30;;;;;;;;;;5049241;28;20128;-59
2023/04/02 12:44:57;;;;;;;4.27;1.13;;;;;;;;;;5049212;28;20049;-60
2023/04/02 12:47:24;;;;;;;2.87;1.20;;;;;;;;;;5049203;28;20553;-59
2023/04/02 12:49:50;;;;;;;7.20;1.23;;;;;;;;;;5049144;28;20037;-59
2023/04/02 12:52:18;;;;;;;3.60;0.80;;;;;;;;;;5048525;28;20388;-59
2023/04/02 12:54:46;;;;;;;4.37;1.40;;;;;;;;;;5048970;28;20045;-59
2023/04/02 12:57:30;;;;;;;4.27;1.10;;;;;;;;;;5048943;28;20155;-59
2023/04/02 12:59:57;;;;;;;4.13;1.17;;;;;;;;;;5048701;28;20053;-59
2023/04/02 13:02:26;;;;;;;4.10;1.20;;;;;;;;;;5048118;28;20596;-59
2023/04/02 13:04:53;;;;;;;4.10;1.47;;;;;;;;;;5049016;28;20057;-59
2023/04/02 13:07:21;;;;;;;3.87;0.97;;;;;;;;;;5048636;28;20055;-60
2023/04/02 13:09:48;;;;;;;2.90;0.97;;;;;;;;;;5046886;28;20056;-59
2023/04/02 13:12:24;;;;;;;4.63;1.50;;;;;;;;;;5048481;28;20060;-59
2023/04/02 13:14:56;;;;;;;4.40;1.20;;;;;;;;;;5048214;28;20048;-59
2023/04/02 13:17:39;;;;;;;5.38;1.27;;;;;;;;;;5048562;28;20124;-59
2023/04/02 13:20:23;;;;;;;5.10;1.20;;;;;;;;;;5040640;28;20088;-59
2023/04/02 13:22:50;;;;;;;5.50;1.37;;;;;;;;;;5039123;28;20411;-59
2023/04/02 13:25:16;;;;;;;3.70;1.03;;;;;;;;;;5037229;28;20699;-59
2023/04/02 13:27:42;;;;;;;3.80;1.23;;;;;;;;;;5043910;28;20059;-59
2023/04/02 13:30:09;;;;;;;5.33;1.37;;;;;;;;;;5042992;28;20049;-59
2023/04/02 13:32:36;;;;;;;2.67;1.07;;;;;;;;;;5043280;28;20072;-59
2023/04/02 13:35:02;;;;;;;2.27;0.97;;;;;;;;;;5039077;28;20491;-59
2023/04/02 13:37:28;;;;;;;4.70;1.27;;;;;;;;;;5030128;28;20052;-60
2023/04/02 13:39:54;;;;;;;3.03;1.10;;;;;;;;;;5029116;28;20042;-60
2023/04/02 13:42:20;;;;;;;3.47;1.20;;;;;;;;;;5028646;28;20496;-60
2023/04/02 13:44:46;;;;;;;7.50;5.30;;;;;;;;;;5027624;28;20377;-59
2023/04/02 13:47:15;;;;;;;6.57;2.63;;;;;;;;;;5027588;28;20347;-59
2023/04/02 13:49:41;;;;;;;7.20;3.67;;;;;;;;;;5029384;28;20045;-60
2023/04/02 13:52:13;;;;;;;4.43;1.57;;;;;;;;;;5028301;28;20053;-60
2023/04/02 13:54:47;;;;;;;4.47;1.40;;;;;;;;;;5051982;28;20055;-59
2023/04/02 13:57:14;;;;;;;4.63;1.13;;;;;;;;;;5038800;28;21071;-60
2023/04/02 13:59:40;;;;;;;4.87;1.10;;;;;;;;;;5038681;28;20260;-59
2023/04/02 14:02:12;;;;;;;3.47;1.20;;;;;;;;;;5037076;28;20044;-59
2023/04/02 14:04:40;;;;;;;3.93;1.20;;;;;;;;;;5037135;28;20049;-60
2023/04/02 14:07:15;;;;;;;3.63;1.10;;;;;;;;;;5036514;28;20456;-60
2023/04/02 14:10:00;;;;;;;4.17;1.20;;;;;;;;;;5035386;28;20048;-60
2023/04/02 14:12:35;;;;;;;3.00;1.00;;;;;;;;;;5033881;28;20038;-59
2023/04/02 14:15:08;;;;;;;5.57;1.47;;;;;;;;;;5036181;28;20041;-60
2023/04/02 14:17:53;;;;;;;2.17;0.82;;;;;;;;;;5038607;28;20102;-60
2023/04/02 14:20:29;;;;;;;3.67;1.00;;;;;;;;;;5041796;28;20079;-60
2023/04/02 14:23:11;;;;;;;4.13;1.30;;;;;;;;;;5042459;28;20037;-60
2023/04/02 14:25:45;;;;;;;3.00;1.23;;;;;;;;;;5042481;28;20041;-60
2023/04/02 14:28:36;;;;;;;4.53;1.10;;;;;;;;;;5042465;28;20600;-59
2023/04/02 14:31:08;;;;;;;2.67;0.97;;;;;;;;;;5051182;28;20404;-60
2023/04/02 14:33:50;;;;;;;3.90;1.40;;;;;;;;;;5051204;28;20041;-59
2023/04/02 14:36:23;;;;;;;4.50;1.33;;;;;;;;;;5051244;28;20067;-59
2023/04/02 14:39:04;;;;;;;3.00;1.27;;;;;;;;;;5050771;28;20045;-60
2023/04/02 14:41:37;;;;;;;3.13;0.90;;;;;;;;;;5051216;28;20049;-60
2023/04/02 14:44:04;;;;;;;4.40;1.15;;;;;;;;;;5051001;28;20048;-60
2023/04/02 14:46:31;;;;;;;1.80;1.00;;;;;;;;;;5051256;28;20045;-60
2023/04/02 14:49:16;;;;;;;3.37;1.13;;;;;;;;;;5051207;28;20427;-60
2023/04/02 14:51:49;;;;;;;3.33;1.00;;;;;;;;;;5040106;28;20053;-60
2023/04/02 14:54:22;;;;;;;4.13;1.25;;;;;;;;;;5039567;28;20057;-60
2023/04/02 14:56:48;;;;;;;;;;;;;;;;;;5038802;28;20139;-60
2023/04/02 14:59:31;;;;;;;3.07;1.17;;;;;;;;;;5055253;28;19956;-60
2023/04/02 15:02:08;;;;;;;4.97;1.43;;;;;;;;;;5042494;28;20053;-60
2023/04/02 15:04:40;;;;;;;4.17;1.10;;;;;;;;;;5043324;28;20044;-60
2023/04/02 15:07:12;;;;;;;2.38;1.17;;;;;;;;;;5044150;28;20048;-60